Time;durP1;ratioP1;P1;durP2;ratioP2;P2;SDS_P1;SDS_P2;PMS_P1;PMS_P2;Temp;Humidity;BMP_temperature;BMP_pressure;BME280_temperature;BME280_humidity;BME280_pressure;Samples;Min_cycle;Max_cycle;Signal;HPM_P1;HPM_P2
2023/12/19 06:00:55;;;;;;;;;;;;;;;;;;5821066;23;19929;-54
2023/12/19 06:03:21;;;;;;;;;;;;;;;;;;4989696;28;20388;-54
2023/12/19 06:05:47;;;;;;;;;;;;;;;;;;4990349;28;19924;-55
2023/12/19 06:08:13;;;;;;;;;;;;;;;;;;4989776;28;19913;-52
2023/12/19 06:10:39;;;;;;;;;;;;;;;;;;4990169;28;19937;-53
2023/12/19 06:13:05;;;;;;;;;;;;;;;;;;4988592;28;19996;-53
2023/12/19 06:15:30;;;;;;;;;;;;;;;;;;4990251;28;19917;-54
2023/12/19 06:17:56;;;;;;;;;;;;;;;;;;4990193;28;19965;-49
2023/12/19 06:20:22;;;;;;;;;;;;;;;;;;4988946;28;19910;-49
2023/12/19 06:22:48;;;;;;;;;;;;;;;;;;4989740;28;19918;-51
2023/12/19 06:25:14;;;;;;;;;;;;;;;;;;4989903;28;20032;-53
2023/12/19 06:27:42;;;;;;;;;;;;;;;;;;4989937;28;19912;-54
2023/12/19 06:30:08;;;;;;;;;;;;;;;;;;4989840;28;19910;-53
2023/12/19 06:32:34;;;;;;;;;;;;;;;;;;4989817;28;20324;-50
2023/12/19 06:35:00;;;;;;;;;;;;;;;;;;4988823;28;19910;-54
2023/12/19 06:37:26;;;;;;;;;;;;;;;;;;4989525;28;19932;-53
2023/12/19 06:39:52;;;;;;;;;;;;;;;;;;4989874;28;19944;-51
2023/12/19 06:42:17;;;;;;;;;;;;;;;;;;4990107;28;19933;-54
2023/12/19 06:44:44;;;;;;;;;;;;;;;;;;4989826;28;19917;-53
2023/12/19 06:47:09;;;;;;;;;;;;;;;;;;4989628;28;20455;-50
2023/12/19 06:49:35;;;;;;;;;;;;;;;;;;4989575;28;19910;-53
2023/12/19 06:52:01;;;;;;;;;;;;;;;;;;4992116;28;20011;-53
2023/12/19 06:54:27;;;;;;;;;;;;;;;;;;4994257;28;19909;-53
2023/12/19 06:56:53;;;;;;;;;;;;;;;;;;4993517;28;20307;-51
2023/12/19 06:59:19;;;;;;;;;;;;;;;;;;4993517;28;19944;-52
2023/12/19 07:01:45;;;;;;;;;;;;;;;;;;4993454;28;19918;-54
2023/12/19 07:04:11;;;;;;;;;;;;;;;;;;4993492;28;19950;-51
2023/12/19 07:06:37;;;;;;;;;;;;;;;;;;4993595;28;19949;-51
2023/12/19 07:09:03;;;;;;;;;;;;;;;;;;4993297;28;20299;-53
2023/12/19 07:11:30;;;;;;;;;;;;;;;;;;4993808;28;20213;-54
2023/12/19 07:13:55;;;;;;;;;;;;;;;;;;4993353;28;19916;-52
2023/12/19 07:16:21;;;;;;;;;;;;;;;;;;4993390;28;20372;-52
2023/12/19 07:18:47;;;;;;;;;;;;;;;;;;4989621;28;19910;-51
2023/12/19 07:21:16;;;;;;;;;;;;;;;;;;4992223;28;19968;-51
2023/12/19 07:23:42;;;;;;;;;;;;;;;;;;4972998;28;19969;-52
2023/12/19 07:26:08;;;;;;;;;;;;;;;;;;4971992;28;19950;-55
2023/12/19 07:28:33;;;;;;;;;;;;;;;;;;4972264;28;20365;-50
2023/12/19 07:30:59;;;;;;;;;;;;;;;;;;4971929;28;19910;-53
2023/12/19 07:33:25;;;;;;;;;;;;;;;;;;4971640;28;19910;-54
2023/12/19 07:35:51;;;;;;;;;;;;;;;;;;4972146;28;20009;-52
2023/12/19 07:38:17;;;;;;;;;;;;;;;;;;4971481;28;20413;-53
2023/12/19 07:40:43;;;;;;;;;;;;;;;;;;4971876;28;20170;-51
2023/12/19 07:43:09;;;;;;;;;;;;;;;;;;4971464;28;20416;-54
2023/12/19 07:45:35;;;;;;;;;;;;;;;;;;4972233;28;20373;-51
2023/12/19 07:48:01;;;;;;;;;;;;;;;;;;4971238;28;19910;-54
2023/12/19 07:50:27;;;;;;;;;;;;;;;;;;4986393;28;19910;-50
2023/12/19 07:52:53;;;;;;;;;;;;;;;;;;4971401;28;20392;-55
2023/12/19 07:55:19;;;;;;;;;;;;;;;;;;4971850;28;19952;-54
2023/12/19 07:57:45;;;;;;;;;;;;;;;;;;4988599;28;19917;-53
2023/12/19 08:00:11;;;;;;;;;;;;;;;;;;4982299;28;20409;-54
2023/12/19 08:02:37;;;;;;;;;;;;;;;;;;4970692;28;19918;-53
2023/12/19 08:05:04;;;;;;;;;;;;;;;;;;4987863;28;20450;-52
2023/12/19 08:07:30;;;;;;;;;;;;;;;;;;4991724;28;19914;-53
2023/12/19 08:09:56;;;;;;;;;;;;;;;;;;4991511;28;19920;-53
2023/12/19 08:12:22;;;;;;;;;;;;;;;;;;4991416;28;19910;-50
2023/12/19 08:14:48;;;;;;;;;;;;;;;;;;4991611;28;19917;-53
2023/12/19 08:17:15;;;;;;;;;;;;;;;;;;4991086;28;19948;-53
2023/12/19 08:19:41;;;;;;;;;;;;;;;;;;4991185;28;19910;-53
2023/12/19 08:22:07;;;;;;;;;;;;;;;;;;4991938;28;19914;-53
2023/12/19 08:24:33;;;;;;;;;;;;;;;;;;4991267;28;19961;-54
2023/12/19 08:26:59;;;;;;;;;;;;;;;;;;4991054;28;19909;-52
2023/12/19 08:29:25;;;;;;;;;;;;;;;;;;4988615;28;19914;-52
2023/12/19 08:31:51;;;;;;;;;;;;;;;;;;4971563;28;20451;-50
2023/12/19 08:34:16;;;;;;;;;;;;;;;;;;4974480;28;20004;-52
2023/12/19 08:36:43;;;;;;;;;;;;;;;;;;4983133;28;19910;-52
2023/12/19 08:39:10;;;;;;;;;;;;;;;;;;4971992;28;19933;-51
2023/12/19 08:41:36;;;;;;;;;;;;;;;;;;4985740;28;19953;-53
2023/12/19 08:44:01;;;;;;;;;;;;;;;;;;4990568;28;20416;-54
2023/12/19 08:46:28;;;;;;;;;;;;;;;;;;4989710;28;19956;-52
2023/12/19 08:48:53;;;;;;;;;;;;;;;;;;4988445;28;20001;-51
2023/12/19 08:51:20;;;;;;;;;;;;;;;;;;4988248;28;19996;-52
2023/12/19 08:53:46;;;;;;;;;;;;;;;;;;4989705;28;19913;-50
2023/12/19 08:56:12;;;;;;;;;;;;;;;;;;4989699;28;19910;-50
2023/12/19 08:58:38;;;;;;;;;;;;;;;;;;4990200;28;19910;-52
2023/12/19 09:01:04;;;;;;;;;;;;;;;;;;4988456;28;19922;-52
2023/12/19 09:03:30;;;;;;;;;;;;;;;;;;4989507;28;19921;-52
2023/12/19 09:05:55;;;;;;;;;;;;;;;;;;4989476;28;19916;-51
2023/12/19 09:08:23;;;;;;;;;;;;;;;;;;4984739;28;19968;-50
2023/12/19 09:10:49;;;;;;;;;;;;;;;;;;4990048;28;19972;-50
2023/12/19 09:13:16;;;;;;;;;;;;;;;;;;4990519;28;19914;-51
2023/12/19 09:15:42;;;;;;;;;;;;;;;;;;4980195;28;20312;-51
2023/12/19 09:18:08;;;;;;;;;;;;;;;;;;4985315;28;19914;-53
2023/12/19 09:20:34;;;;;;;;;;;;;;;;;;4989153;28;20392;-52
2023/12/19 09:23:00;;;;;;;;;;;;;;;;;;4985572;28;19918;-53
2023/12/19 09:25:26;;;;;;;;;;;;;;;;;;4987889;28;20527;-51
2023/12/19 09:27:52;;;;;;;;;;;;;;;;;;4990060;28;19910;-50
2023/12/19 09:30:18;;;;;;;;;;;;;;;;;;5005258;28;19914;-50
2023/12/19 09:32:44;;;;;;;;;;;;;;;;;;4989080;28;19989;-52
2023/12/19 09:35:11;;;;;;;;;;;;;;;;;;4987426;28;20370;-50
2023/12/19 09:37:37;;;;;;;;;;;;;;;;;;4998833;28;20285;-51
2023/12/19 09:40:03;;;;;;;;;;;;;;;;;;4988534;28;19917;-52
2023/12/19 09:42:31;;;;;;;;;;;;;;;;;;4989320;28;19909;-52
2023/12/19 09:44:57;;;;;;;;;;;;;;;;;;4989516;28;19913;-50
2023/12/19 09:47:26;;;;;;;;;;;;;;;;;;4989480;28;19957;-51
2023/12/19 09:49:52;;;;;;;;;;;;;;;;;;4989734;28;19916;-53
2023/12/19 09:52:17;;;;;;;;;;;;;;;;;;4998813;28;20004;-53
2023/12/19 09:54:43;;;;;;;;;;;;;;;;;;4989285;28;20004;-54
2023/12/19 09:57:12;;;;;;;;;;;;;;;;;;4989641;28;19914;-54
2023/12/19 09:59:37;;;;;;;;;;;;;;;;;;4989225;28;19933;-49
2023/12/19 10:02:04;;;;;;;;;;;;;;;;;;4989222;28;19960;-50
2023/12/19 10:04:30;;;;;;;;;;;;;;;;;;5006940;28;19913;-53
2023/12/19 10:06:57;;;;;;;;;;;;;;;;;;4999502;28;19924;-52
2023/12/19 10:09:23;;;;;;;;;;;;;;;;;;5000729;28;19918;-53
2023/12/19 10:11:48;;;;;;;;;;;;;;;;;;4990133;28;19910;-51
2023/12/19 10:14:15;;;;;;;;;;;;;;;;;;4989803;28;19914;-52
2023/12/19 10:16:43;;;;;;;;;;;;;;;;;;4989816;28;20364;-52
2023/12/19 10:19:11;;;;;;;;;;;;;;;;;;4997972;28;19913;-51
2023/12/19 10:21:37;;;;;;;;;;;;;;;;;;4994323;28;19918;-50
2023/12/19 10:24:02;;;;;;;;;;;;;;;;;;5000346;28;19914;-53
2023/12/19 10:26:29;;;;;;;;;;;;;;;;;;5003044;28;19931;-53
2023/12/19 10:28:54;;;;;;;;;;;;;;;;;;5009010;28;19909;-54
2023/12/19 10:31:21;;;;;;;;;;;;;;;;;;5009616;28;19955;-51
2023/12/19 10:33:46;;;;;;;;;;;;;;;;;;4986682;28;20005;-51
2023/12/19 10:36:12;;;;;;;;;;;;;;;;;;4994070;28;19996;-54
2023/12/19 10:38:38;;;;;;;;;;;;;;;;;;5008035;28;19914;-53
2023/12/19 10:41:06;;;;;;;;;;;;;;;;;;4992791;28;19918;-53
2023/12/19 10:43:32;;;;;;;;;;;;;;;;;;5008420;28;19913;-53
2023/12/19 10:45:58;;;;;;;;;;;;;;;;;;5003821;28;20514;-53
2023/12/19 10:48:24;;;;;;;;;;;;;;;;;;4987274;28;19924;-52
2023/12/19 10:50:50;;;;;;;;;;;;;;;;;;4988608;28;19933;-54
2023/12/19 10:53:16;;;;;;;;;;;;;;;;;;5003274;28;20056;-51
2023/12/19 10:55:41;;;;;;;;;;;;;;;;;;5008679;28;20460;-52
2023/12/19 10:58:07;;;;;;;;;;;;;;;;;;5008808;28;19910;-50
2023/12/19 11:00:34;;;;;;;;;;;;;;;;;;5003374;28;19921;-50
2023/12/19 11:03:05;;;;;;;;;;;;;;;;;;4985705;28;20008;-53
2023/12/19 11:05:31;;;;;;;;;;;;;;;;;;4989028;28;19914;-53
2023/12/19 11:07:57;;;;;;;;;;;;;;;;;;4989166;28;20600;-54
2023/12/19 11:10:22;;;;;;;;;;;;;;;;;;4988309;28;19917;-51
2023/12/19 11:12:48;;;;;;;;;;;;;;;;;;4987959;28;19921;-51
2023/12/19 11:15:15;;;;;;;;;;;;;;;;;;5008886;28;19910;-53
2023/12/19 11:17:41;;;;;;;;;;;;;;;;;;5002288;28;20001;-50
2023/12/19 11:20:09;;;;;;;;;;;;;;;;;;5007659;28;20317;-53
2023/12/19 11:22:34;;;;;;;;;;;;;;;;;;4996165;28;20341;-50
2023/12/19 11:25:01;;;;;;;;;;;;;;;;;;4987745;28;19959;-53
2023/12/19 11:27:27;;;;;;;;;;;;;;;;;;4988186;28;19956;-53
2023/12/19 11:29:56;;;;;;;;;;;;;;;;;;4986965;28;19910;-54
2023/12/19 11:32:22;;;;;;;;;;;;;;;;;;4986990;28;19914;-49
2023/12/19 11:34:48;;;;;;;;;;;;;;;;;;4991806;28;19941;-51
2023/12/19 11:37:14;;;;;;;;;;;;;;;;;;4988634;28;19921;-50
2023/12/19 11:39:39;;;;;;;;;;;;;;;;;;4989687;28;19910;-51
2023/12/19 11:42:05;;;;;;;;;;;;;;;;;;4990342;28;19906;-51
2023/12/19 11:44:31;;;;;;;;;;;;;;;;;;4991043;28;19913;-48
2023/12/19 11:46:57;;;;;;;;;;;;;;;;;;4995531;28;19913;-51
2023/12/19 11:49:23;;;;;;;;;;;;;;;;;;5004725;28;19964;-47
2023/12/19 11:51:50;;;;;;;;;;;;;;;;;;4988829;28;20384;-45
2023/12/19 11:54:16;;;;;;;;;;;;;;;;;;4970763;28;19910;-48
2023/12/19 11:56:42;;;;;;;;;;;;;;;;;;4970559;28;20411;-46
2023/12/19 11:59:08;;;;;;;;;;;;;;;;;;4970421;28;19957;-45
2023/12/19 12:01:34;;;;;;;;;;;;;;;;;;4971151;28;19918;-46
2023/12/19 12:04:00;;;;;;;;;;;;;;;;;;4987233;28;19940;-44
2023/12/19 12:06:26;;;;;;;;;;;;;;;;;;4988799;28;19944;-47
2023/12/19 12:08:52;;;;;;;;;;;;;;;;;;4989707;28;20418;-46
2023/12/19 12:11:17;;;;;;;;;;;;;;;;;;4989919;28;19913;-46
2023/12/19 12:13:43;;;;;;;;;;;;;;;;;;4997809;28;19917;-45
2023/12/19 12:16:09;;;;;;;;;;;;;;;;;;5009209;28;19944;-43
2023/12/19 12:18:35;;;;;;;;;;;;;;;;;;5007612;28;19983;-44
2023/12/19 12:21:01;;;;;;;;;;;;;;;;;;4991285;28;20361;-46
2023/12/19 12:23:27;;;;;;;;;;;;;;;;;;4991474;28;20000;-44
2023/12/19 12:25:54;;;;;;;;;;;;;;;;;;4991694;28;19910;-45
2023/12/19 12:28:25;;;;;;;;;;;;;;;;;;4991608;28;20399;-43
2023/12/19 12:30:52;;;;;;;;;;;;;;;;;;4987112;28;19941;-45
2023/12/19 12:33:18;;;;;;;;;;;;;;;;;;4990337;28;19910;-44
2023/12/19 12:35:44;;;;;;;;;;;;;;;;;;4990867;28;20430;-46
2023/12/19 12:38:11;;;;;;;;;;;;;;;;;;4986598;28;19914;-47
2023/12/19 12:40:37;;;;;;;;;;;;;;;;;;5003215;28;19971;-44
2023/12/19 12:43:02;;;;;;;;;;;;;;;;;;4991902;28;20553;-47
2023/12/19 12:45:28;;;;;;;;;;;;;;;;;;4985195;28;19914;-46
2023/12/19 12:47:54;;;;;;;;;;;;;;;;;;4987566;28;19914;-46
2023/12/19 12:50:20;;;;;;;;;;;;;;;;;;4988501;28;20004;-45
2023/12/19 12:52:46;;;;;;;;;;;;;;;;;;4986727;28;19993;-45
2023/12/19 12:55:12;;;;;;;;;;;;;;;;;;4988699;28;19945;-47
2023/12/19 12:57:38;;;;;;;;;;;;;;;;;;4989686;28;20313;-45
2023/12/19 13:00:06;;;;;;;;;;;;;;;;;;4981134;28;19917;-47
2023/12/19 13:02:34;;;;;;;;;;;;;;;;;;4984645;28;19917;-49
2023/12/19 13:05:00;;;;;;;;;;;;;;;;;;4988260;28;19996;-48
2023/12/19 13:07:26;;;;;;;;;;;;;;;;;;4989622;28;19992;-45
2023/12/19 13:09:52;;;;;;;;;;;;;;;;;;4989891;28;19910;-45
2023/12/19 13:12:18;;;;;;;;;;;;;;;;;;4988744;28;19921;-46
2023/12/19 13:14:44;;;;;;;;;;;;;;;;;;4987579;28;19995;-46
2023/12/19 13:17:10;;;;;;;;;;;;;;;;;;4992294;28;19917;-45
2023/12/19 13:19:36;;;;;;;;;;;;;;;;;;5008350;28;19910;-46
2023/12/19 13:22:03;;;;;;;;;;;;;;;;;;5009341;28;19906;-46
2023/12/19 13:24:29;;;;;;;;;;;;;;;;;;4999073;28;19921;-46
2023/12/19 13:26:55;;;;;;;;;;;;;;;;;;4987069;28;19976;-47
2023/12/19 13:29:21;;;;;;;;;;;;;;;;;;4988614;28;20246;-46
2023/12/19 13:31:47;;;;;;;;;;;;;;;;;;4988657;28;19917;-47
2023/12/19 13:34:13;;;;;;;;;;;;;;;;;;4989315;28;19914;-45
2023/12/19 13:36:42;;;;;;;;;;;;;;;;;;4987781;28;19929;-44
2023/12/19 13:39:12;;;;;;;;;;;;;;;;;;4981504;28;19990;-45
2023/12/19 13:41:37;;;;;;;;;;;;;;;;;;4978218;28;19918;-47
2023/12/19 13:44:03;;;;;;;;;;;;;;;;;;5004960;28;20040;-48
2023/12/19 13:46:29;;;;;;;;;;;;;;;;;;5000088;28;19940;-49
2023/12/19 13:48:56;;;;;;;;;;;;;;;;;;4987364;28;20277;-44
2023/12/19 13:51:21;;;;;;;;;;;;;;;;;;5000807;28;19914;-48
2023/12/19 13:53:47;;;;;;;;;;;;;;;;;;4986153;28;19937;-45
2023/12/19 13:56:13;;;;;;;;;;;;;;;;;;4979731;28;20028;-44
2023/12/19 13:58:39;;;;;;;;;;;;;;;;;;4969228;28;19910;-45
2023/12/19 14:01:05;;;;;;;;;;;;;;;;;;4985712;28;19957;-48
2023/12/19 14:03:31;;;;;;;;;;;;;;;;;;4982739;28;19917;-44
2023/12/19 14:05:58;;;;;;;;;;;;;;;;;;4990497;28;20396;-48
2023/12/19 14:08:24;;;;;;;;;;;;;;;;;;5002973;28;19910;-49
2023/12/19 14:10:50;;;;;;;;;;;;;;;;;;4988596;28;19932;-45
2023/12/19 14:13:16;;;;;;;;;;;;;;;;;;5000968;28;19918;-47
2023/12/19 14:15:42;;;;;;;;;;;;;;;;;;4988055;28;20336;-47
2023/12/19 14:18:08;;;;;;;;;;;;;;;;;;4987807;28;20009;-47
2023/12/19 14:20:34;;;;;;;;;;;;;;;;;;4987973;28;19920;-45
2023/12/19 14:23:01;;;;;;;;;;;;;;;;;;5001478;28;19922;-49
2023/12/19 14:25:27;;;;;;;;;;;;;;;;;;4985241;28;20400;-46
2023/12/19 14:27:53;;;;;;;;;;;;;;;;;;4986739;28;19983;-46
2023/12/19 14:30:19;;;;;;;;;;;;;;;;;;4985078;28;19935;-47
2023/12/19 14:32:44;;;;;;;;;;;;;;;;;;4984294;28;20519;-46
2023/12/19 14:35:11;;;;;;;;;;;;;;;;;;4984394;28;19961;-45
2023/12/19 14:37:37;;;;;;;;;;;;;;;;;;4987045;28;19921;-47
2023/12/19 14:40:03;;;;;;;;;;;;;;;;;;4985714;28;19917;-45
2023/12/19 14:42:29;;;;;;;;;;;;;;;;;;4985080;28;19914;-46
2023/12/19 14:44:55;;;;;;;;;;;;;;;;;;4986272;28;19914;-46
2023/12/19 14:47:21;;;;;;;;;;;;;;;;;;4991748;28;19944;-46
2023/12/19 14:49:47;;;;;;;;;;;;;;;;;;4985112;28;20012;-46
2023/12/19 14:52:13;;;;;;;;;;;;;;;;;;4983657;28;19940;-48
2023/12/19 14:54:40;;;;;;;;;;;;;;;;;;4999598;28;20443;-45
2023/12/19 14:57:06;;;;;;;;;;;;;;;;;;4983722;28;19917;-47
2023/12/19 14:59:32;;;;;;;;;;;;;;;;;;4985493;28;19940;-46
2023/12/19 15:01:58;;;;;;;;;;;;;;;;;;4985081;28;19918;-48
2023/12/19 15:04:24;;;;;;;;;;;;;;;;;;4983376;28;19918;-46
2023/12/19 15:06:50;;;;;;;;;;;;;;;;;;4981781;28;19960;-46
2023/12/19 15:09:18;;;;;;;;;;;;;;;;;;4982236;28;19957;-45
2023/12/19 15:11:44;;;;;;;;;;;;;;;;;;4996162;28;19914;-45
2023/12/19 15:14:10;;;;;;;;;;;;;;;;;;4990425;28;19983;-47
2023/12/19 15:16:38;;;;;;;;;;;;;;;;;;4988029;28;19925;-46
2023/12/19 15:19:03;;;;;;;;;;;;;;;;;;4987117;28;21479;-46
2023/12/19 15:21:29;;;;;;;;;;;;;;;;;;4987391;28;20403;-47
2023/12/19 15:23:56;;;;;;;;;;;;;;;;;;4987446;28;19918;-47
2023/12/19 15:26:22;;;;;;;;;;;;;;;;;;4988688;28;19913;-45
2023/12/19 15:28:48;;;;;;;;;;;;;;;;;;4986888;28;19921;-46
2023/12/19 15:31:14;;;;;;;;;;;;;;;;;;4985989;28;19971;-45
2023/12/19 15:33:42;;;;;;;;;;;;;;;;;;4989722;28;19913;-45
2023/12/19 15:36:07;;;;;;;;;;;;;;;;;;4988781;28;19984;-44
2023/12/19 15:38:33;;;;;;;;;;;;;;;;;;4987737;28;20381;-44
2023/12/19 15:40:59;;;;;;;;;;;;;;;;;;4989534;28;19914;-46
2023/12/19 15:43:25;;;;;;;;;;;;;;;;;;4987406;28;19926;-44
2023/12/19 15:45:52;;;;;;;;;;;;;;;;;;4986646;28;19913;-46
2023/12/19 15:48:17;;;;;;;;;;;;;;;;;;4992953;28;20312;-46
2023/12/19 15:50:43;;;;;;;;;;;;;;;;;;4991978;28;19920;-45
2023/12/19 15:53:10;;;;;;;;;;;;;;;;;;4990764;28;20008;-45
2023/12/19 15:55:36;;;;;;;;;;;;;;;;;;4982270;28;19914;-46
2023/12/19 15:58:02;;;;;;;;;;;;;;;;;;4991227;28;19910;-46
2023/12/19 16:00:28;;;;;;;;;;;;;;;;;;4990916;28;20055;-45
2023/12/19 16:02:54;;;;;;;;;;;;;;;;;;4984346;28;19918;-47
2023/12/19 16:05:20;;;;;;;;;;;;;;;;;;5007318;28;20011;-44
2023/12/19 16:07:45;;;;;;;;;;;;;;;;;;4994760;28;19969;-46
2023/12/19 16:10:12;;;;;;;;;;;;;;;;;;4993182;28;19909;-47
2023/12/19 16:12:38;;;;;;;;;;;;;;;;;;4990876;28;19914;-45
2023/12/19 16:15:04;;;;;;;;;;;;;;;;;;4990662;28;19922;-48
2023/12/19 16:17:30;;;;;;;;;;;;;;;;;;4992594;28;19909;-44
2023/12/19 16:19:57;;;;;;;;;;;;;;;;;;4982702;28;19924;-45
2023/12/19 16:22:23;;;;;;;;;;;;;;;;;;5003971;28;19915;-46
2023/12/19 16:24:53;;;;;;;;;;;;;;;;;;5010968;28;19983;-45
2023/12/19 16:27:21;;;;;;;;;;;;;;;;;;5009768;28;19910;-46
2023/12/19 16:29:47;;;;;;;;;;;;;;;;;;4992417;28;19964;-45
2023/12/19 16:32:13;;;;;;;;;;;;;;;;;;4994852;28;20339;-46
2023/12/19 16:34:39;;;;;;;;;;;;;;;;;;4995819;28;19914;-45
2023/12/19 16:37:05;;;;;;;;;;;;;;;;;;4991135;28;19914;-46
2023/12/19 16:39:31;;;;;;;;;;;;;;;;;;5005091;28;19913;-46
2023/12/19 16:41:57;;;;;;;;;;;;;;;;;;4991515;28;19921;-46
2023/12/19 16:44:22;;;;;;;;;;;;;;;;;;4998345;28;19917;-46
2023/12/19 16:46:48;;;;;;;;;;;;;;;;;;5010401;28;19914;-45
2023/12/19 16:49:15;;;;;;;;;;;;;;;;;;5012153;28;19909;-46
2023/12/19 16:51:41;;;;;;;;;;;;;;;;;;5011989;28;19910;-45
2023/12/19 16:54:07;;;;;;;;;;;;;;;;;;5002968;28;19948;-45
2023/12/19 16:56:33;;;;;;;;;;;;;;;;;;4973721;28;19910;-45
2023/12/19 16:58:59;;;;;;;;;;;;;;;;;;4972224;28;19973;-44
2023/12/19 17:01:24;;;;;;;;;;;;;;;;;;4972303;28;20016;-46
2023/12/19 17:03:50;;;;;;;;;;;;;;;;;;4975511;28;19918;-44
2023/12/19 17:06:18;;;;;;;;;;;;;;;;;;4990953;28;19918;-47
2023/12/19 17:08:44;;;;;;;;;;;;;;;;;;4992080;28;20278;-45
2023/12/19 17:11:10;;;;;;;;;;;;;;;;;;4989182;28;19956;-47
2023/12/19 17:13:36;;;;;;;;;;;;;;;;;;4979865;28;19920;-45
2023/12/19 17:16:02;;;;;;;;;;;;;;;;;;4990114;28;19918;-46
2023/12/19 17:18:28;;;;;;;;;;;;;;;;;;4989253;28;19917;-46
2023/12/19 17:20:54;;;;;;;;;;;;;;;;;;5005758;28;20012;-46
2023/12/19 17:23:20;;;;;;;;;;;;;;;;;;4993558;28;19918;-47
2023/12/19 17:25:46;;;;;;;;;;;;;;;;;;4991208;28;19910;-45
2023/12/19 17:28:12;;;;;;;;;;;;;;;;;;4990658;28;19936;-46
2023/12/19 17:30:38;;;;;;;;;;;;;;;;;;4991691;28;19914;-45
2023/12/19 17:33:04;;;;;;;;;;;;;;;;;;4989340;28;19917;-46
2023/12/19 17:35:30;;;;;;;;;;;;;;;;;;4991137;28;20630;-45
2023/12/19 17:37:55;;;;;;;;;;;;;;;;;;5006499;28;19913;-45
2023/12/19 17:40:22;;;;;;;;;;;;;;;;;;5009418;28;20399;-45
2023/12/19 17:42:48;;;;;;;;;;;;;;;;;;4996553;28;19929;-44
2023/12/19 17:45:14;;;;;;;;;;;;;;;;;;4984060;28;19984;-44
2023/12/19 17:47:40;;;;;;;;;;;;;;;;;;4989442;28;19910;-44
2023/12/19 17:50:06;;;;;;;;;;;;;;;;;;4990278;28;19968;-45
2023/12/19 17:52:32;;;;;;;;;;;;;;;;;;4987784;28;19914;-44
2023/12/19 17:54:58;;;;;;;;;;;;;;;;;;4986523;28;19922;-45
2023/12/19 17:57:24;;;;;;;;;;;;;;;;;;4988739;28;19968;-45
2023/12/19 17:59:50;;;;;;;;;;;;;;;;;;4992668;28;20324;-46
2023/12/19 18:02:15;;;;;;;;;;;;;;;;;;4987744;28;19918;-48
2023/12/19 18:04:43;;;;;;;;;;;;;;;;;;4988570;28;20012;-46
2023/12/19 18:07:11;;;;;;;;;;;;;;;;;;4988932;28;20205;-44
2023/12/19 18:09:37;;;;;;;;;;;;;;;;;;4988570;28;20281;-48
2023/12/19 18:12:02;;;;;;;;;;;;;;;;;;4983745;28;20357;-45
2023/12/19 18:14:28;;;;;;;;;;;;;;;;;;4986390;28;19913;-46
2023/12/19 18:16:54;;;;;;;;;;;;;;;;;;4995133;28;19914;-46
2023/12/19 18:19:20;;;;;;;;;;;;;;;;;;4975726;28;19938;-45
2023/12/19 18:21:46;;;;;;;;;;;;;;;;;;4981340;28;20004;-46
2023/12/19 18:24:12;;;;;;;;;;;;;;;;;;4976468;28;19918;-47
2023/12/19 18:26:41;;;;;;;;;;;;;;;;;;4981443;28;19917;-45
2023/12/19 18:29:07;;;;;;;;;;;;;;;;;;4988397;28;20384;-44
2023/12/19 18:31:33;;;;;;;;;;;;;;;;;;4988026;28;19917;-45
2023/12/19 18:33:59;;;;;;;;;;;;;;;;;;4986781;28;19914;-45
2023/12/19 18:36:25;;;;;;;;;;;;;;;;;;4985933;28;19915;-45
2023/12/19 18:38:51;;;;;;;;;;;;;;;;;;4986474;28;19945;-45
2023/12/19 18:41:17;;;;;;;;;;;;;;;;;;4980236;28;19918;-45
2023/12/19 18:43:43;;;;;;;;;;;;;;;;;;4986604;28;20012;-44
2023/12/19 18:46:09;;;;;;;;;;;;;;;;;;5002032;28;20005;-45
2023/12/19 18:48:34;;;;;;;;;;;;;;;;;;4989878;28;19921;-45
2023/12/19 18:51:00;;;;;;;;;;;;;;;;;;4991319;28;20293;-45
2023/12/19 18:53:26;;;;;;;;;;;;;;;;;;4991391;28;20004;-43
2023/12/19 18:55:52;;;;;;;;;;;;;;;;;;4998672;28;20389;-44
2023/12/19 18:58:18;;;;;;;;;;;;;;;;;;4994389;28;19918;-45
2023/12/19 19:00:44;;;;;;;;;;;;;;;;;;4990055;28;19987;-44
2023/12/19 19:03:10;;;;;;;;;;;;;;;;;;4990515;28;19918;-45
2023/12/19 19:05:36;;;;;;;;;;;;;;;;;;4988976;28;19932;-45
2023/12/19 19:08:02;;;;;;;;;;;;;;;;;;4986290;28;20586;-44
2023/12/19 19:10:28;;;;;;;;;;;;;;;;;;4997850;28;19913;-45
2023/12/19 19:12:54;;;;;;;;;;;;;;;;;;4985593;28;19935;-45
2023/12/19 19:15:20;;;;;;;;;;;;;;;;;;4984900;28;19924;-45
2023/12/19 19:17:46;;;;;;;;;;;;;;;;;;4986177;28;19925;-45
2023/12/19 19:20:12;;;;;;;;;;;;;;;;;;4983711;28;19920;-45
2023/12/19 19:22:38;;;;;;;;;;;;;;;;;;4985033;28;20285;-47
2023/12/19 19:25:04;;;;;;;;;;;;;;;;;;4988251;28;19922;-48
2023/12/19 19:27:30;;;;;;;;;;;;;;;;;;4998547;28;20373;-45
2023/12/19 19:29:55;;;;;;;;;;;;;;;;;;4986665;28;19913;-47
2023/12/19 19:32:21;;;;;;;;;;;;;;;;;;4988929;28;19914;-46
2023/12/19 19:34:47;;;;;;;;;;;;;;;;;;4986627;28;19920;-44
2023/12/19 19:37:15;;;;;;;;;;;;;;;;;;4986276;28;20415;-46
2023/12/19 19:39:41;;;;;;;;;;;;;;;;;;4987785;28;19914;-44
2023/12/19 19:42:07;;;;;;;;;;;;;;;;;;4984323;28;19918;-47
2023/12/19 19:44:33;;;;;;;;;;;;;;;;;;4985889;28;19921;-46
2023/12/19 19:46:59;;;;;;;;;;;;;;;;;;4987333;28;19961;-47
2023/12/19 19:49:25;;;;;;;;;;;;;;;;;;4988147;28;19918;-44
2023/12/19 19:51:51;;;;;;;;;;;;;;;;;;4989609;28;19918;-45
2023/12/19 19:54:16;;;;;;;;;;;;;;;;;;4990577;28;19961;-46
2023/12/19 19:56:42;;;;;;;;;;;;;;;;;;4988087;28;19922;-47
2023/12/19 19:59:10;;;;;;;;;;;;;;;;;;4990579;28;19937;-46
2023/12/19 20:01:35;;;;;;;;;;;;;;;;;;4987970;28;19989;-48
2023/12/19 20:04:01;;;;;;;;;;;;;;;;;;4987081;28;20424;-47
2023/12/19 20:06:27;;;;;;;;;;;;;;;;;;4985987;28;19968;-48
2023/12/19 20:08:53;;;;;;;;;;;;;;;;;;4987067;28;19929;-45
2023/12/19 20:11:19;;;;;;;;;;;;;;;;;;4982133;28;19921;-46
2023/12/19 20:13:45;;;;;;;;;;;;;;;;;;4988600;28;19941;-47
2023/12/19 20:16:13;;;;;;;;;;;;;;;;;;4970810;28;19910;-46
2023/12/19 20:18:39;;;;;;;;;;;;;;;;;;4985590;28;20333;-44
2023/12/19 20:21:04;;;;;;;;;;;;;;;;;;4984557;28;19925;-47
2023/12/19 20:23:30;;;;;;;;;;;;;;;;;;4987108;28;20408;-47
2023/12/19 20:25:56;;;;;;;;;;;;;;;;;;4986743;28;19996;-46
2023/12/19 20:28:23;;;;;;;;;;;;;;;;;;4983187;28;20004;-45
2023/12/19 20:30:48;;;;;;;;;;;;;;;;;;4985651;28;19957;-45
2023/12/19 20:33:15;;;;;;;;;;;;;;;;;;4988449;28;19999;-45
2023/12/19 20:35:40;;;;;;;;;;;;;;;;;;5000626;28;19921;-45
2023/12/19 20:38:06;;;;;;;;;;;;;;;;;;4987932;28;19918;-46
2023/12/19 20:40:32;;;;;;;;;;;;;;;;;;4988000;28;19914;-44
2023/12/19 20:42:58;;;;;;;;;;;;;;;;;;4990858;28;19917;-44
2023/12/19 20:45:24;;;;;;;;;;;;;;;;;;4991619;28;19914;-47
2023/12/19 20:47:50;;;;;;;;;;;;;;;;;;4987702;28;20390;-47
2023/12/19 20:50:16;;;;;;;;;;;;;;;;;;4988054;28;19918;-45
2023/12/19 20:52:42;;;;;;;;;;;;;;;;;;4985987;28;19918;-47
2023/12/19 20:55:08;;;;;;;;;;;;;;;;;;4988449;28;19913;-45
2023/12/19 20:57:34;;;;;;;;;;;;;;;;;;4986530;28;19949;-45
2023/12/19 20:59:59;;;;;;;;;;;;;;;;;;4988665;28;19910;-47
2023/12/19 21:02:25;;;;;;;;;;;;;;;;;;4983976;28;20245;-45
2023/12/19 21:04:51;;;;;;;;;;;;;;;;;;4987371;28;19979;-45
2023/12/19 21:07:17;;;;;;;;;;;;;;;;;;4987713;28;19945;-47
2023/12/19 21:09:44;;;;;;;;;;;;;;;;;;5000151;28;20911;-43
2023/12/19 21:12:10;;;;;;;;;;;;;;;;;;4993363;28;19913;-43
2023/12/19 21:14:36;;;;;;;;;;;;;;;;;;4986671;28;20416;-47
2023/12/19 21:17:02;;;;;;;;;;;;;;;;;;4987671;28;19914;-46
2023/12/19 21:19:28;;;;;;;;;;;;;;;;;;4985412;28;19917;-45
2023/12/19 21:21:54;;;;;;;;;;;;;;;;;;4986287;28;19961;-45
2023/12/19 21:24:21;;;;;;;;;;;;;;;;;;4987261;28;20489;-44
2023/12/19 21:26:47;;;;;;;;;;;;;;;;;;4986697;28;19914;-46
2023/12/19 21:29:13;;;;;;;;;;;;;;;;;;4983945;28;19922;-48
2023/12/19 21:31:39;;;;;;;;;;;;;;;;;;4986239;28;20401;-46
2023/12/19 21:34:09;;;;;;;;;;;;;;;;;;4987768;28;19914;-48
2023/12/19 21:36:35;;;;;;;;;;;;;;;;;;4997314;28;19914;-45
2023/12/19 21:39:01;;;;;;;;;;;;;;;;;;4986870;28;20068;-45
2023/12/19 21:41:27;;;;;;;;;;;;;;;;;;4984021;28;20288;-45
2023/12/19 21:43:53;;;;;;;;;;;;;;;;;;5002300;28;19918;-45
2023/12/19 21:46:19;;;;;;;;;;;;;;;;;;4982070;28;19920;-46
2023/12/19 21:48:45;;;;;;;;;;;;;;;;;;4985648;28;19924;-45
2023/12/19 21:51:12;;;;;;;;;;;;;;;;;;5002116;28;20036;-45
2023/12/19 21:53:43;;;;;;;;;;;;;;;;;;4986195;28;19940;-48
2023/12/19 21:56:08;;;;;;;;;;;;;;;;;;4987596;28;19916;-48
2023/12/19 21:58:34;;;;;;;;;;;;;;;;;;4986137;28;20000;-47
2023/12/19 22:01:00;;;;;;;;;;;;;;;;;;4985789;28;19976;-45
2023/12/19 22:03:26;;;;;;;;;;;;;;;;;;4986092;28;19930;-46
2023/12/19 22:05:52;;;;;;;;;;;;;;;;;;4988330;28;20343;-44
2023/12/19 22:08:18;;;;;;;;;;;;;;;;;;4993540;28;19909;-45
2023/12/19 22:10:44;;;;;;;;;;;;;;;;;;5006954;28;20472;-44
2023/12/19 22:13:10;;;;;;;;;;;;;;;;;;5000206;28;19910;-46
2023/12/19 22:15:35;;;;;;;;;;;;;;;;;;5001507;28;20326;-47
2023/12/19 22:18:01;;;;;;;;;;;;;;;;;;4986188;28;20110;-47
2023/12/19 22:20:29;;;;;;;;;;;;;;;;;;4984500;28;20348;-45
2023/12/19 22:22:55;;;;;;;;;;;;;;;;;;4988911;28;19910;-44
2023/12/19 22:25:21;;;;;;;;;;;;;;;;;;4985333;28;19914;-46
2023/12/19 22:27:47;;;;;;;;;;;;;;;;;;4984903;28;20270;-49
2023/12/19 22:30:13;;;;;;;;;;;;;;;;;;4983280;28;19949;-45
2023/12/19 22:32:39;;;;;;;;;;;;;;;;;;4986332;28;20430;-45
2023/12/19 22:35:04;;;;;;;;;;;;;;;;;;4986766;28;19914;-45
2023/12/19 22:37:30;;;;;;;;;;;;;;;;;;4983621;28;19909;-46